JAL314 RJFK-VHHH
Flight info
| Callsign | JAL314 |
|---|---|
| Flight time | N/A |
| Altitude | 34000 |
| Route | HKC Y50 IGMON A1 ELATO V522 ABBEY |
| Aircraft | B763/H-SDE3FGHIM3RWXY/LB1 |
Departure
| Time | 2026-04-20 03:50 |
|---|---|
| Airport | Kagoshima Airport (RJFK) |
Arrival
| Time | N/A |
|---|---|
| Airport | Hong Kong International Airport (VHHH) |
| Time | Latitude | Longitude | Altitude | Speed | Heading |
|---|---|---|---|---|---|
| 2026-04-20 03:28 | 31.80213 | 130.71625 | 904 ft | 0 kts | 240° |
| 2026-04-20 03:43 | 31.80215 | 130.71628 | 903 ft | 2 kts | 240° |
| 2026-04-20 03:43 | 31.80222 | 130.71643 | 903 ft | 2 kts | 240° |
| 2026-04-20 03:43 | 31.80230 | 130.71658 | 903 ft | 2 kts | 240° |
| 2026-04-20 03:44 | 31.80237 | 130.71674 | 903 ft | 2 kts | 240° |
| 2026-04-20 03:44 | 31.80245 | 130.71689 | 903 ft | 2 kts | 238° |
| 2026-04-20 03:44 | 31.80253 | 130.71704 | 903 ft | 2 kts | 238° |
| 2026-04-20 03:44 | 31.80260 | 130.71719 | 903 ft | 2 kts | 239° |
| 2026-04-20 03:45 | 31.80268 | 130.71735 | 903 ft | 2 kts | 238° |
| 2026-04-20 03:45 | 31.80276 | 130.71750 | 903 ft | 2 kts | 238° |
| 2026-04-20 03:45 | 31.80280 | 130.71765 | 903 ft | 2 kts | 291° |
| 2026-04-20 03:45 | 31.80275 | 130.71776 | 903 ft | 1 kts | 320° |
| 2026-04-20 03:46 | 31.80269 | 130.71780 | 903 ft | 1 kts | 331° |
| 2026-04-20 03:46 | 31.80268 | 130.71780 | 903 ft | 0 kts | 330° |
| 2026-04-20 03:47 | 31.80269 | 130.71780 | 903 ft | 0 kts | 330° |
| 2026-04-20 03:47 | 31.80287 | 130.71765 | 903 ft | 5 kts | 323° |
| 2026-04-20 03:47 | 31.80331 | 130.71729 | 903 ft | 9 kts | 325° |
| 2026-04-20 03:47 | 31.80395 | 130.71680 | 903 ft | 13 kts | 330° |
| 2026-04-20 03:48 | 31.80488 | 130.71616 | 903 ft | 17 kts | 330° |
| 2026-04-20 03:48 | 31.80613 | 130.71530 | 903 ft | 23 kts | 330° |
| 2026-04-20 03:48 | 31.80759 | 130.71431 | 903 ft | 22 kts | 330° |
| 2026-04-20 03:48 | 31.80896 | 130.71343 | 903 ft | 22 kts | 344° |
| 2026-04-20 03:49 | 31.80994 | 130.71429 | 903 ft | 16 kts | 64° |
| 2026-04-20 03:49 | 31.80978 | 130.71507 | 903 ft | 11 kts | 151° |
| 2026-04-20 03:49 | 31.80812 | 130.71619 | 903 ft | 57 kts | 150° |
| 2026-04-20 03:49 | 31.80254 | 130.71995 | 903 ft | 126 kts | 150° |
| 2026-04-20 03:50 | 31.79317 | 130.72624 | 969 ft | 179 kts | 151° |
| 2026-04-20 03:50 | 31.78187 | 130.73163 | 1797 ft | 178 kts | 178° |
| 2026-04-20 03:50 | 31.76979 | 130.72778 | 2284 ft | 202 kts | 214° |
| 2026-04-20 03:50 | 31.76094 | 130.71381 | 2831 ft | 226 kts | 248° |
| 2026-04-20 03:51 | 31.75617 | 130.69569 | 3585 ft | 244 kts | 251° |
| 2026-04-20 03:51 | 31.75111 | 130.67641 | 4490 ft | 255 kts | 251° |
| 2026-04-20 03:51 | 31.74568 | 130.65657 | 5612 ft | 256 kts | 248° |
| 2026-04-20 03:51 | 31.73795 | 130.63814 | 6639 ft | 259 kts | 236° |
| 2026-04-20 03:52 | 31.72719 | 130.62129 | 7640 ft | 259 kts | 229° |
| 2026-04-20 03:52 | 31.71530 | 130.60564 | 8292 ft | 261 kts | 227° |
| 2026-04-20 03:52 | 31.70249 | 130.59024 | 8956 ft | 264 kts | 226° |
| 2026-04-20 03:52 | 31.69062 | 130.57385 | 9596 ft | 266 kts | 234° |
| 2026-04-20 03:53 | 31.67956 | 130.55640 | 10199 ft | 271 kts | 233° |
| 2026-04-20 03:53 | 31.66761 | 130.53798 | 10234 ft | 298 kts | 233° |
| 2026-04-20 03:53 | 31.65430 | 130.51762 | 10274 ft | 324 kts | 233° |
| 2026-04-20 03:53 | 31.64016 | 130.49606 | 10340 ft | 349 kts | 233° |
| 2026-04-20 03:54 | 31.62504 | 130.47307 | 11003 ft | 356 kts | 233° |
| 2026-04-20 03:54 | 31.60989 | 130.45004 | 11714 ft | 361 kts | 233° |
| 2026-04-20 03:54 | 31.59452 | 130.42668 | 12445 ft | 365 kts | 233° |
| 2026-04-20 03:54 | 31.57906 | 130.40320 | 13170 ft | 369 kts | 233° |
| 2026-04-20 03:55 | 31.56319 | 130.37911 | 13893 ft | 372 kts | 233° |
| 2026-04-20 03:55 | 31.54744 | 130.35524 | 14590 ft | 376 kts | 234° |
| 2026-04-20 03:55 | 31.53122 | 130.33066 | 15290 ft | 380 kts | 233° |
| 2026-04-20 03:55 | 31.51511 | 130.30626 | 15969 ft | 383 kts | 233° |
| 2026-04-20 03:56 | 31.49890 | 130.28172 | 16630 ft | 387 kts | 233° |
| 2026-04-20 03:56 | 31.48224 | 130.25652 | 17293 ft | 390 kts | 233° |
| 2026-04-20 03:56 | 31.46568 | 130.23149 | 17923 ft | 394 kts | 233° |
| 2026-04-20 03:56 | 31.44881 | 130.20601 | 18558 ft | 397 kts | 233° |
| 2026-04-20 03:57 | 31.43192 | 130.18051 | 19168 ft | 401 kts | 233° |
| 2026-04-20 03:57 | 31.41466 | 130.15448 | 19774 ft | 404 kts | 233° |
| 2026-04-20 03:57 | 31.39758 | 130.12872 | 20367 ft | 408 kts | 233° |
| 2026-04-20 03:57 | 31.38019 | 130.10254 | 20953 ft | 411 kts | 233° |
| 2026-04-20 03:58 | 31.36244 | 130.07582 | 21532 ft | 415 kts | 233° |
| 2026-04-20 03:58 | 31.34472 | 130.04916 | 22092 ft | 418 kts | 233° |
| 2026-04-20 03:58 | 31.32694 | 130.02243 | 22661 ft | 421 kts | 233° |
| 2026-04-20 03:58 | 31.30879 | 129.99516 | 23207 ft | 425 kts | 233° |
| 2026-04-20 03:59 | 31.29052 | 129.96774 | 23745 ft | 428 kts | 234° |
| 2026-04-20 03:59 | 31.27236 | 129.94049 | 24278 ft | 432 kts | 234° |
| 2026-04-20 03:59 | 31.25393 | 129.91287 | 24800 ft | 435 kts | 234° |
| 2026-04-20 03:59 | 31.23516 | 129.88475 | 25312 ft | 438 kts | 234° |
| 2026-04-20 04:00 | 31.21647 | 129.85677 | 25825 ft | 441 kts | 234° |
| 2026-04-20 04:00 | 31.19764 | 129.82861 | 26306 ft | 445 kts | 234° |
| 2026-04-20 04:00 | 31.17844 | 129.79990 | 26778 ft | 448 kts | 234° |
| 2026-04-20 04:00 | 31.15932 | 129.77133 | 27261 ft | 451 kts | 234° |
| 2026-04-20 04:01 | 31.13980 | 129.74220 | 27739 ft | 454 kts | 234° |
| 2026-04-20 04:01 | 31.12047 | 129.71338 | 28208 ft | 457 kts | 234° |
| 2026-04-20 04:01 | 31.10067 | 129.68387 | 28643 ft | 461 kts | 234° |
| 2026-04-20 04:01 | 31.08095 | 129.65449 | 29090 ft | 464 kts | 234° |
| 2026-04-20 04:02 | 31.06113 | 129.62500 | 29541 ft | 466 kts | 234° |
| 2026-04-20 04:02 | 31.04480 | 129.60072 | 29922 ft | 468 kts | 234° |
| 2026-04-20 04:02 | 31.02482 | 129.57103 | 30470 ft | 468 kts | 234° |
| 2026-04-20 04:02 | 31.00459 | 129.54099 | 30974 ft | 468 kts | 234° |
| 2026-04-20 04:03 | 30.98471 | 129.51147 | 31477 ft | 467 kts | 234° |
| 2026-04-20 04:03 | 30.96466 | 129.48175 | 31922 ft | 466 kts | 233° |
| 2026-04-20 04:03 | 30.94484 | 129.45238 | 32335 ft | 466 kts | 233° |
| 2026-04-20 04:03 | 30.92479 | 129.42271 | 32717 ft | 466 kts | 233° |
| 2026-04-20 04:04 | 30.90485 | 129.39320 | 33068 ft | 466 kts | 233° |
| 2026-04-20 04:04 | 30.88469 | 129.36340 | 33421 ft | 466 kts | 233° |
| 2026-04-20 04:04 | 30.86488 | 129.33415 | 33735 ft | 466 kts | 233° |
| 2026-04-20 04:04 | 30.84473 | 129.30443 | 33965 ft | 466 kts | 233° |
| 2026-04-20 04:05 | 30.80449 | 129.24509 | 33955 ft | 471 kts | 233° |
| 2026-04-20 04:05 | 30.76416 | 129.18527 | 33947 ft | 469 kts | 234° |
| 2026-04-20 04:06 | 30.72462 | 129.12494 | 33941 ft | 469 kts | 234° |
| 2026-04-20 04:06 | 30.68522 | 129.06497 | 33941 ft | 470 kts | 234° |
| 2026-04-20 04:07 | 30.64545 | 129.00456 | 33948 ft | 472 kts | 234° |
| 2026-04-20 04:07 | 30.60557 | 128.94408 | 33955 ft | 474 kts | 234° |
| 2026-04-20 04:08 | 30.56558 | 128.88350 | 33963 ft | 475 kts | 234° |
| 2026-04-20 04:08 | 30.52524 | 128.82250 | 33962 ft | 475 kts | 234° |
| 2026-04-20 04:09 | 30.48515 | 128.76198 | 33959 ft | 474 kts | 234° |
| 2026-04-20 04:09 | 30.45756 | 128.72037 | 33959 ft | 475 kts | 234° |
| 2026-04-20 04:10 | 30.42516 | 128.67149 | 34004 ft | 477 kts | 232° |
| 2026-04-20 04:10 | 30.38493 | 128.61104 | 34001 ft | 481 kts | 232° |
| 2026-04-20 04:11 | 30.35198 | 128.56155 | 33999 ft | 480 kts | 232° |
| 2026-04-20 04:11 | 30.31125 | 128.50046 | 34000 ft | 480 kts | 232° |
| 2026-04-20 04:12 | 30.27077 | 128.43982 | 34000 ft | 480 kts | 232° |
| 2026-04-20 04:12 | 30.22961 | 128.37828 | 34000 ft | 480 kts | 232° |
| 2026-04-20 04:13 | 30.18883 | 128.31738 | 34000 ft | 480 kts | 232° |
| 2026-04-20 04:13 | 30.14783 | 128.25626 | 34000 ft | 480 kts | 232° |
| 2026-04-20 04:14 | 30.10712 | 128.19566 | 34000 ft | 480 kts | 232° |
| 2026-04-20 04:14 | 30.06833 | 128.13800 | 34000 ft | 480 kts | 232° |
| 2026-04-20 04:15 | 30.02762 | 128.07758 | 34000 ft | 480 kts | 232° |
| 2026-04-20 04:15 | 29.98677 | 128.01703 | 34000 ft | 480 kts | 232° |
| 2026-04-20 04:16 | 29.95038 | 127.96317 | 34000 ft | 480 kts | 232° |
| 2026-04-20 04:16 | 29.90964 | 127.90297 | 34000 ft | 480 kts | 232° |
| 2026-04-20 04:17 | 29.86870 | 127.84256 | 34000 ft | 480 kts | 232° |
| 2026-04-20 04:17 | 29.82543 | 127.78377 | 34000 ft | 480 kts | 229° |
| 2026-04-20 04:18 | 29.78235 | 127.72600 | 34000 ft | 480 kts | 229° |
| 2026-04-20 04:18 | 29.73879 | 127.66760 | 34000 ft | 480 kts | 229° |
| 2026-04-20 04:19 | 29.69542 | 127.60951 | 34000 ft | 480 kts | 229° |
| 2026-04-20 04:19 | 29.65217 | 127.55168 | 34000 ft | 480 kts | 229° |
| 2026-04-20 04:20 | 29.60881 | 127.49378 | 34000 ft | 480 kts | 229° |
| 2026-04-20 04:20 | 29.56635 | 127.43496 | 34000 ft | 480 kts | 232° |
| 2026-04-20 04:21 | 29.52507 | 127.37499 | 34000 ft | 480 kts | 232° |
| 2026-04-20 04:21 | 29.48371 | 127.31512 | 34000 ft | 480 kts | 231° |
| 2026-04-20 04:22 | 29.44231 | 127.25531 | 34000 ft | 480 kts | 231° |
| 2026-04-20 04:22 | 29.40098 | 127.19570 | 34000 ft | 480 kts | 231° |
| 2026-04-20 04:23 | 29.35953 | 127.13600 | 34000 ft | 480 kts | 231° |
| 2026-04-20 04:23 | 29.31810 | 127.07642 | 34000 ft | 480 kts | 231° |
| 2026-04-20 04:24 | 29.27657 | 127.01678 | 34000 ft | 480 kts | 231° |
| 2026-04-20 04:24 | 29.23520 | 126.95747 | 34000 ft | 480 kts | 231° |
| 2026-04-20 04:25 | 29.19359 | 126.89790 | 34000 ft | 480 kts | 231° |
| 2026-04-20 04:25 | 29.15205 | 126.83849 | 34000 ft | 480 kts | 231° |
| 2026-04-20 04:26 | 29.11060 | 126.77933 | 34000 ft | 480 kts | 231° |
| 2026-04-20 04:26 | 29.06899 | 126.71999 | 34000 ft | 480 kts | 231° |
| 2026-04-20 04:27 | 29.02736 | 126.66073 | 34000 ft | 480 kts | 231° |
| 2026-04-20 04:27 | 28.98555 | 126.60129 | 34000 ft | 480 kts | 231° |
| 2026-04-20 04:28 | 28.94327 | 126.54302 | 34000 ft | 480 kts | 230° |
| 2026-04-20 04:28 | 28.90036 | 126.48513 | 34000 ft | 480 kts | 230° |
| 2026-04-20 04:29 | 28.85710 | 126.42683 | 34000 ft | 480 kts | 230° |
| 2026-04-20 04:29 | 28.81424 | 126.36913 | 34000 ft | 480 kts | 230° |
| 2026-04-20 04:30 | 28.77118 | 126.31126 | 34000 ft | 480 kts | 229° |
| 2026-04-20 04:30 | 28.72803 | 126.25332 | 34000 ft | 480 kts | 229° |
| 2026-04-20 04:31 | 28.68522 | 126.19592 | 34000 ft | 480 kts | 229° |
| 2026-04-20 04:31 | 28.64213 | 126.13824 | 34000 ft | 480 kts | 230° |
| 2026-04-20 04:32 | 28.60010 | 126.07929 | 34000 ft | 480 kts | 231° |
| 2026-04-20 04:32 | 28.55842 | 126.02045 | 34000 ft | 480 kts | 231° |
| 2026-04-20 04:33 | 28.51657 | 125.96147 | 34000 ft | 480 kts | 231° |
| 2026-04-20 04:33 | 28.47492 | 125.90287 | 34000 ft | 480 kts | 231° |
| 2026-04-20 04:34 | 28.43312 | 125.84415 | 34000 ft | 480 kts | 231° |
| 2026-04-20 04:34 | 28.39114 | 125.78525 | 34000 ft | 480 kts | 231° |
| 2026-04-20 04:35 | 28.34920 | 125.72649 | 34000 ft | 480 kts | 231° |
| 2026-04-20 04:35 | 28.30722 | 125.66775 | 34000 ft | 480 kts | 231° |
| 2026-04-20 04:36 | 28.24424 | 125.57980 | 34000 ft | 480 kts | 231° |
| 2026-04-20 04:37 | 28.20236 | 125.52140 | 34000 ft | 480 kts | 231° |
| 2026-04-20 04:37 | 28.16038 | 125.46295 | 34000 ft | 480 kts | 231° |
| 2026-04-20 04:38 | 28.11828 | 125.40440 | 34000 ft | 480 kts | 231° |
| 2026-04-20 04:38 | 28.07633 | 125.34616 | 34000 ft | 480 kts | 230° |
| 2026-04-20 04:39 | 28.03422 | 125.28778 | 34000 ft | 480 kts | 230° |
| 2026-04-20 04:39 | 27.99231 | 125.22974 | 34000 ft | 480 kts | 230° |
| 2026-04-20 04:40 | 27.95001 | 125.17124 | 34000 ft | 480 kts | 230° |
| 2026-04-20 04:40 | 27.90787 | 125.11305 | 34000 ft | 480 kts | 230° |
| 2026-04-20 04:41 | 27.86577 | 125.05499 | 34000 ft | 480 kts | 230° |
| 2026-04-20 04:41 | 27.82345 | 124.99671 | 34000 ft | 480 kts | 230° |
| 2026-04-20 04:42 | 27.78150 | 124.93900 | 34000 ft | 480 kts | 230° |
| 2026-04-20 04:42 | 27.73910 | 124.88077 | 34000 ft | 480 kts | 230° |
| 2026-04-20 04:43 | 27.69685 | 124.82282 | 34000 ft | 480 kts | 230° |
| 2026-04-20 04:43 | 27.65456 | 124.76489 | 34000 ft | 480 kts | 230° |
| 2026-04-20 04:44 | 27.61230 | 124.70706 | 34000 ft | 480 kts | 231° |
| 2026-04-20 04:44 | 27.56990 | 124.64905 | 34000 ft | 480 kts | 231° |
| 2026-04-20 04:45 | 27.52773 | 124.59141 | 34000 ft | 480 kts | 231° |
| 2026-04-20 04:45 | 27.48534 | 124.53357 | 34000 ft | 480 kts | 231° |
| 2026-04-20 04:46 | 27.44309 | 124.47600 | 34000 ft | 480 kts | 231° |
| 2026-04-20 04:46 | 27.40047 | 124.41799 | 34000 ft | 480 kts | 231° |
| 2026-04-20 04:47 | 27.35818 | 124.36051 | 34000 ft | 480 kts | 231° |
| 2026-04-20 04:47 | 27.31552 | 124.30260 | 34000 ft | 480 kts | 230° |
| 2026-04-20 04:48 | 27.27306 | 124.24505 | 34000 ft | 480 kts | 230° |
| 2026-04-20 04:48 | 27.23056 | 124.18752 | 34000 ft | 480 kts | 230° |
| 2026-04-20 04:49 | 27.18792 | 124.12986 | 34000 ft | 480 kts | 230° |
| 2026-04-20 04:49 | 27.14552 | 124.07261 | 34000 ft | 480 kts | 230° |
| 2026-04-20 04:50 | 27.10286 | 124.01509 | 34000 ft | 480 kts | 230° |
| 2026-04-20 04:50 | 27.06007 | 123.95797 | 34000 ft | 480 kts | 230° |
| 2026-04-20 04:51 | 27.01723 | 123.90105 | 34000 ft | 480 kts | 230° |
| 2026-04-20 04:51 | 26.97424 | 123.84400 | 34000 ft | 480 kts | 230° |
| 2026-04-20 04:52 | 26.93108 | 123.78680 | 34000 ft | 480 kts | 230° |
| 2026-04-20 04:52 | 26.88823 | 123.73009 | 34000 ft | 480 kts | 230° |
| 2026-04-20 04:53 | 26.84514 | 123.67314 | 34000 ft | 480 kts | 230° |
| 2026-04-20 04:53 | 26.80199 | 123.61618 | 34000 ft | 480 kts | 230° |
| 2026-04-20 04:54 | 26.76631 | 123.56914 | 34000 ft | 480 kts | 230° |
| 2026-04-20 04:54 | 26.73289 | 123.52511 | 34006 ft | 473 kts | 229° |
| 2026-04-20 04:55 | 26.69050 | 123.46933 | 34023 ft | 473 kts | 229° |
| 2026-04-20 04:55 | 26.64778 | 123.41321 | 34020 ft | 476 kts | 229° |
| 2026-04-20 04:56 | 26.60500 | 123.35706 | 34020 ft | 474 kts | 229° |
| 2026-04-20 04:56 | 26.56232 | 123.30112 | 34020 ft | 474 kts | 229° |
| 2026-04-20 04:57 | 26.51934 | 123.24486 | 34020 ft | 475 kts | 229° |
| 2026-04-20 04:57 | 26.47669 | 123.18909 | 34020 ft | 475 kts | 229° |
| 2026-04-20 04:58 | 26.43404 | 123.13339 | 34020 ft | 475 kts | 229° |
| 2026-04-20 04:58 | 26.39104 | 123.07731 | 34014 ft | 474 kts | 229° |
| 2026-04-20 04:59 | 26.34843 | 123.02181 | 34000 ft | 472 kts | 229° |
| 2026-04-20 04:59 | 26.30640 | 122.96651 | 33988 ft | 471 kts | 229° |
| 2026-04-20 05:00 | 26.26422 | 122.91061 | 33975 ft | 469 kts | 229° |
| 2026-04-20 05:00 | 26.22259 | 122.85553 | 33966 ft | 468 kts | 229° |
| 2026-04-20 05:01 | 26.18064 | 122.80010 | 33976 ft | 468 kts | 229° |
| 2026-04-20 05:01 | 26.13862 | 122.74465 | 33979 ft | 468 kts | 229° |
| 2026-04-20 05:02 | 26.09663 | 122.68929 | 33976 ft | 468 kts | 229° |
| 2026-04-20 05:02 | 26.05483 | 122.63426 | 33966 ft | 469 kts | 229° |
| 2026-04-20 05:03 | 26.01286 | 122.57907 | 33964 ft | 469 kts | 229° |
| 2026-04-20 05:03 | 25.97088 | 122.52393 | 33963 ft | 469 kts | 229° |